createdAt,value
2016-05-02T00:00:03.553Z,1022.58
2016-05-02T00:00:13.538Z,1022.55
2016-05-02T00:00:23.399Z,1022.54
2016-05-02T00:00:33.540Z,1022.49
2016-05-02T00:00:43.540Z,1022.56
2016-05-02T00:00:53.540Z,1022.53
2016-05-02T00:01:03.524Z,1022.56
2016-05-02T00:01:13.368Z,1022.52
2016-05-02T00:01:23.511Z,1022.53
2016-05-02T00:01:33.511Z,1022.53
2016-05-02T00:01:43.355Z,1022.5
2016-05-02T00:01:53.355Z,1022.54
2016-05-02T00:02:03.496Z,1022.48
2016-05-02T00:02:13.480Z,1022.52
2016-05-02T00:02:23.483Z,1022.5
2016-05-02T00:02:33.483Z,1022.5
2016-05-02T00:02:43.483Z,1022.53
2016-05-02T00:02:53.483Z,1022.5
2016-05-02T00:03:03.483Z,1022.53
2016-05-02T00:03:13.452Z,1022.56
2016-05-02T00:03:23.455Z,1022.51
2016-05-02T00:03:33.439Z,1022.53
2016-05-02T00:03:43.439Z,1022.55
2016-05-02T00:03:53.439Z,1022.53
2016-05-02T00:04:03.439Z,1022.52
2016-05-02T00:04:13.439Z,1022.54
2016-05-02T00:04:23.426Z,1022.5
2016-05-02T00:04:33.426Z,1022.53
2016-05-02T00:04:43.426Z,1022.55
2016-05-02T00:04:53.394Z,1022.54
2016-05-02T00:05:03.410Z,1022.54
2016-05-02T00:05:13.410Z,1022.52
2016-05-02T00:05:23.397Z,1022.52
2016-05-02T00:05:33.241Z,1022.52
2016-05-02T00:05:43.382Z,1022.52
2016-05-02T00:05:53.351Z,1022.58
2016-05-02T00:06:03.366Z,1022.56
2016-05-02T00:06:13.382Z,1022.57
2016-05-02T00:06:23.557Z,1022.56
2016-05-02T00:06:33.354Z,1022.55
2016-05-02T00:06:43.354Z,1022.56
2016-05-02T00:06:53.197Z,1022.56
2016-05-02T00:07:03.338Z,1022.53
2016-05-02T00:07:13.338Z,1022.57
2016-05-02T00:07:23.168Z,1022.55
2016-05-02T00:07:33.340Z,1022.55
2016-05-02T00:07:43.324Z,1022.58
2016-05-02T00:07:53.168Z,1022.57
2016-05-02T00:08:03.309Z,1022.55
2016-05-02T00:08:13.293Z,1022.57
2016-05-02T00:08:23.155Z,1022.59
2016-05-02T00:08:33.280Z,1022.58
2016-05-02T00:08:43.296Z,1022.56
2016-05-02T00:08:53.280Z,1022.57
2016-05-02T00:09:03.280Z,1022.56
2016-05-02T00:09:13.265Z,1022.54
2016-05-02T00:09:23.268Z,1022.55
2016-05-02T00:09:33.283Z,1022.58
2016-05-02T00:09:43.268Z,1022.55
2016-05-02T00:09:53.252Z,1022.57
2016-05-02T00:10:03.252Z,1022.56
2016-05-02T00:10:13.080Z,1022.57
2016-05-02T00:10:23.239Z,1022.59
2016-05-02T00:10:33.239Z,1022.61
2016-05-02T00:10:43.223Z,1022.58
2016-05-02T00:10:53.223Z,1022.59
2016-05-02T00:11:03.223Z,1022.59
2016-05-02T00:11:13.207Z,1022.56
2016-05-02T00:11:23.210Z,1022.56
2016-05-02T00:11:33.195Z,1022.55
2016-05-02T00:11:43.195Z,1022.57
2016-05-02T00:11:53.195Z,1022.55
2016-05-02T00:12:03.038Z,1022.5
2016-05-02T00:12:13.179Z,1022.55
2016-05-02T00:12:23.182Z,1022.5
2016-05-02T00:12:33.182Z,1022.52
2016-05-02T00:12:43.166Z,1022.54
2016-05-02T00:12:53.166Z,1022.53
2016-05-02T00:13:03.151Z,1022.55
2016-05-02T00:13:13.151Z,1022.53
2016-05-02T00:13:23.012Z,1022.51
2016-05-02T00:13:33.137Z,1022.54
2016-05-02T00:13:42.981Z,1022.6
2016-05-02T00:13:52.981Z,1022.54
2016-05-02T00:14:02.965Z,1022.57
2016-05-02T00:14:13.122Z,1022.56
2016-05-02T00:14:22.967Z,1022.55
2016-05-02T00:14:33.124Z,1022.58
2016-05-02T00:14:42.952Z,1022.57
2016-05-02T00:14:53.108Z,1022.56
2016-05-02T00:15:03.092Z,1022.56
2016-05-02T00:15:13.092Z,1022.57
2016-05-02T00:15:22.940Z,1022.56
2016-05-02T00:15:32.940Z,1022.54
2016-05-02T00:15:43.081Z,1022.55
2016-05-02T00:15:53.065Z,1022.58
2016-05-02T00:16:03.081Z,1022.56
2016-05-02T00:16:12.909Z,1022.56
2016-05-02T00:16:22.912Z,1022.57
2016-05-02T00:16:33.052Z,1022.53
2016-05-02T00:16:43.052Z,1022.57
2016-05-02T00:16:53.052Z,1022.53
2016-05-02T00:17:03.037Z,1022.59
2016-05-02T00:17:13.037Z,1022.57
2016-05-02T00:17:23.039Z,1022.57
2016-05-02T00:17:33.023Z,1022.57
2016-05-02T00:17:43.023Z,1022.54
2016-05-02T00:17:53.039Z,1022.58
2016-05-02T00:18:03.008Z,1022.55
2016-05-02T00:18:12.851Z,1022.55
2016-05-02T00:18:22.995Z,1022.55
2016-05-02T00:18:32.839Z,1022.58
2016-05-02T00:18:42.995Z,1022.54
2016-05-02T00:18:52.979Z,1022.55
2016-05-02T00:19:02.823Z,1022.56
2016-05-02T00:19:12.807Z,1022.61
2016-05-02T00:19:22.966Z,1022.55
2016-05-02T00:19:32.950Z,1022.54
2016-05-02T00:19:42.794Z,1022.57
2016-05-02T00:19:52.966Z,1022.56
2016-05-02T00:20:02.638Z,1022.53
2016-05-02T00:20:12.950Z,1022.55
2016-05-02T00:20:22.953Z,1022.54
2016-05-02T00:20:32.937Z,1022.57
2016-05-02T00:20:42.922Z,1022.54
2016-05-02T00:20:52.922Z,1022.57
2016-05-02T00:21:02.922Z,1022.57
2016-05-02T00:21:12.937Z,1022.6
2016-05-02T00:21:22.908Z,1022.55
2016-05-02T00:21:32.768Z,1022.55
2016-05-02T00:21:42.908Z,1022.55
2016-05-02T00:21:52.752Z,1022.56
2016-05-02T00:22:02.736Z,1022.58
2016-05-02T00:22:12.877Z,1022.58
2016-05-02T00:22:22.881Z,1022.57
2016-05-02T00:22:32.865Z,1022.56
2016-05-02T00:22:42.850Z,1022.52
2016-05-02T00:22:52.865Z,1022.54
2016-05-02T00:23:02.850Z,1022.57
2016-05-02T00:23:12.850Z,1022.51
2016-05-02T00:23:22.695Z,1022.55
2016-05-02T00:23:32.836Z,1022.51
2016-05-02T00:23:42.836Z,1022.54
2016-05-02T00:23:52.836Z,1022.53
2016-05-02T00:24:02.820Z,1022.61
2016-05-02T00:24:12.820Z,1022.53
2016-05-02T00:24:22.823Z,1022.51
2016-05-02T00:24:32.652Z,1022.52
2016-05-02T00:24:42.808Z,1022.54
2016-05-02T00:24:52.823Z,1022.5
2016-05-02T00:25:02.652Z,1022.51
2016-05-02T00:25:12.792Z,1022.5
2016-05-02T00:25:22.780Z,1022.5
2016-05-02T00:25:32.764Z,1022.5
2016-05-02T00:25:42.780Z,1022.48
2016-05-02T00:25:52.780Z,1022.5
2016-05-02T00:26:02.764Z,1022.5
2016-05-02T00:26:12.764Z,1022.58
2016-05-02T00:26:22.750Z,1022.49
2016-05-02T00:26:32.750Z,1022.52
2016-05-02T00:26:42.750Z,1022.47
2016-05-02T00:26:52.750Z,1022.48
2016-05-02T00:27:02.578Z,1022.45
2016-05-02T00:27:12.719Z,1022.51
2016-05-02T00:27:22.721Z,1022.52
2016-05-02T00:27:32.705Z,1022.57
2016-05-02T00:27:42.721Z,1022.48
2016-05-02T00:27:52.705Z,1022.52
2016-05-02T00:28:02.705Z,1022.53
2016-05-02T00:28:12.721Z,1022.51
2016-05-02T00:28:22.693Z,1022.53
2016-05-02T00:28:32.380Z,1022.49
2016-05-02T00:28:42.693Z,1022.5
2016-05-02T00:28:52.677Z,1022.49
2016-05-02T00:29:02.677Z,1022.52
2016-05-02T00:29:12.677Z,1022.49
2016-05-02T00:29:22.681Z,1022.51
2016-05-02T00:29:32.681Z,1022.5
2016-05-02T00:29:42.650Z,1022.56
2016-05-02T00:29:52.494Z,1022.52
2016-05-02T00:30:02.666Z,1022.52
2016-05-02T00:30:12.650Z,1022.52
2016-05-02T00:30:22.636Z,1022.54
2016-05-02T00:30:32.636Z,1022.55
2016-05-02T00:30:42.621Z,1022.5
2016-05-02T00:30:52.605Z,1022.53
2016-05-02T00:31:02.605Z,1022.56
2016-05-02T00:31:12.464Z,1022.52
2016-05-02T00:31:22.452Z,1022.54
2016-05-02T00:31:32.452Z,1022.49
2016-05-02T00:31:42.592Z,1022.55
2016-05-02T00:31:52.592Z,1022.54
2016-05-02T00:32:02.436Z,1022.52
2016-05-02T00:32:12.561Z,1022.55
2016-05-02T00:32:22.579Z,1022.51
2016-05-02T00:32:32.563Z,1022.53
2016-05-02T00:32:42.563Z,1022.55
2016-05-02T00:32:52.563Z,1022.52
2016-05-02T00:33:02.579Z,1022.54
2016-05-02T00:33:12.563Z,1022.51
2016-05-02T00:33:22.551Z,1022.53
2016-05-02T00:33:32.394Z,1022.53
2016-05-02T00:33:42.394Z,1022.52
2016-05-02T00:33:52.379Z,1022.5
2016-05-02T00:34:02.519Z,1022.54
2016-05-02T00:34:12.363Z,1022.54
2016-05-02T00:34:22.349Z,1022.53
2016-05-02T00:34:32.506Z,1022.5
2016-05-02T00:34:42.506Z,1022.53
2016-05-02T00:34:52.506Z,1022.5
2016-05-02T00:35:02.490Z,1022.53
2016-05-02T00:35:12.334Z,1022.55
2016-05-02T00:35:22.337Z,1022.55
2016-05-02T00:35:32.462Z,1022.56
2016-05-02T00:35:42.306Z,1022.53
2016-05-02T00:35:52.462Z,1022.53
2016-05-02T00:36:02.743Z,1022.53
2016-05-02T00:36:12.743Z,1022.55
2016-05-02T00:36:22.980Z,1022.53
2016-05-02T00:36:33.277Z,1022.51
2016-05-02T00:36:42.434Z,1022.57
2016-05-02T00:36:52.418Z,1022.54
2016-05-02T00:37:02.449Z,1022.54
2016-05-02T00:37:12.434Z,1022.5
2016-05-02T00:37:22.421Z,1022.5
2016-05-02T00:37:32.265Z,1022.54
2016-05-02T00:37:42.405Z,1022.51
2016-05-02T00:37:52.249Z,1022.55
2016-05-02T00:38:02.249Z,1022.52
2016-05-02T00:38:12.421Z,1022.52
2016-05-02T00:38:22.392Z,1022.5
2016-05-02T00:38:32.235Z,1022.53
2016-05-02T00:38:42.376Z,1022.5
2016-05-02T00:38:52.360Z,1022.53
2016-05-02T00:39:02.376Z,1022.51
2016-05-02T00:39:12.376Z,1022.51
2016-05-02T00:39:22.363Z,1022.51
2016-05-02T00:39:32.363Z,1022.48
2016-05-02T00:39:42.363Z,1022.49
2016-05-02T00:39:52.348Z,1022.5
2016-05-02T00:40:02.332Z,1022.46
2016-05-02T00:40:12.176Z,1022.5
2016-05-02T00:40:22.319Z,1022.46
2016-05-02T00:40:32.178Z,1022.48
2016-05-02T00:40:42.319Z,1022.49
2016-05-02T00:40:52.303Z,1022.49
2016-05-02T00:41:02.303Z,1022.51
2016-05-02T00:41:12.303Z,1022.49
2016-05-02T00:41:22.291Z,1022.5
2016-05-02T00:41:32.307Z,1022.5
2016-05-02T00:41:42.307Z,1022.47
2016-05-02T00:41:52.291Z,1022.51
2016-05-02T00:42:02.276Z,1022.51
2016-05-02T00:42:12.119Z,1022.49
2016-05-02T00:42:22.278Z,1022.49
2016-05-02T00:42:32.262Z,1022.46
2016-05-02T00:42:42.246Z,1022.51
2016-05-02T00:42:52.278Z,1022.5
2016-05-02T00:43:02.246Z,1022.46
2016-05-02T00:43:12.090Z,1022.44
2016-05-02T00:43:22.234Z,1022.46
2016-05-02T00:43:32.078Z,1022.48
2016-05-02T00:43:42.218Z,1022.49
2016-05-02T00:43:52.234Z,1022.47
2016-05-02T00:44:02.203Z,1022.51
2016-05-02T00:44:12.218Z,1022.46
2016-05-02T00:44:22.205Z,1022.45
2016-05-02T00:44:32.048Z,1022.48
2016-05-02T00:44:42.189Z,1022.51
2016-05-02T00:44:52.173Z,1022.52
2016-05-02T00:45:02.189Z,1022.47
2016-05-02T00:45:12.189Z,1022.42
2016-05-02T00:45:21.864Z,1022.5
2016-05-02T00:45:32.176Z,1022.47
2016-05-02T00:45:42.161Z,1022.44
2016-05-02T00:45:52.161Z,1022.5
2016-05-02T00:46:02.161Z,1022.46
2016-05-02T00:46:12.145Z,1022.45
2016-05-02T00:46:22.148Z,1022.48
2016-05-02T00:46:32.132Z,1022.45
2016-05-02T00:46:42.132Z,1022.47
2016-05-02T00:46:52.132Z,1022.42
2016-05-02T00:47:02.132Z,1022.43
2016-05-02T00:47:12.117Z,1022.45
2016-05-02T00:47:22.119Z,1022.47
2016-05-02T00:47:32.103Z,1022.44
2016-05-02T00:47:42.119Z,1022.45
2016-05-02T00:47:51.947Z,1022.44
2016-05-02T00:48:02.088Z,1022.41
2016-05-02T00:48:11.931Z,1022.45
2016-05-02T00:48:21.950Z,1022.43
2016-05-02T00:48:32.075Z,1022.42
2016-05-02T00:48:42.075Z,1022.47
2016-05-02T00:48:52.075Z,1022.43
2016-05-02T00:49:02.075Z,1022.45
2016-05-02T00:49:12.059Z,1022.45
2016-05-02T00:49:22.062Z,1022.44
2016-05-02T00:49:32.047Z,1022.41
2016-05-02T00:49:42.047Z,1022.4
2016-05-02T00:49:51.875Z,1022.48
2016-05-02T00:50:02.031Z,1022.4
2016-05-02T00:50:12.031Z,1022.45
2016-05-02T00:50:22.034Z,1022.46
2016-05-02T00:50:32.018Z,1022.47
2016-05-02T00:50:42.018Z,1022.45
2016-05-02T00:50:52.284Z,1022.47
2016-05-02T00:51:01.706Z,1022.48
2016-05-02T00:51:11.847Z,1022.49
2016-05-02T00:51:22.208Z,1022.5
2016-05-02T00:51:31.989Z,1022.49
2016-05-02T00:51:41.974Z,1022.48
2016-05-02T00:51:51.833Z,1022.47
2016-05-02T00:52:01.974Z,1022.45
2016-05-02T00:52:11.974Z,1022.46
2016-05-02T00:52:21.961Z,1022.48
2016-05-02T00:52:31.805Z,1022.51
2016-05-02T00:52:41.945Z,1022.47
2016-05-02T00:52:51.930Z,1022.47
2016-05-02T00:53:01.945Z,1022.45
2016-05-02T00:53:11.945Z,1022.45
2016-05-02T00:53:21.933Z,1022.5
2016-05-02T00:53:31.933Z,1022.46
2016-05-02T00:53:41.917Z,1022.5
2016-05-02T00:53:51.917Z,1022.5
2016-05-02T00:54:01.901Z,1022.46
2016-05-02T00:54:11.886Z,1022.46
2016-05-02T00:54:21.747Z,1022.52
2016-05-02T00:54:31.888Z,1022.48
2016-05-02T00:54:41.732Z,1022.46
2016-05-02T00:54:51.716Z,1022.49
2016-05-02T00:55:01.872Z,1022.46
2016-05-02T00:55:11.857Z,1022.46
2016-05-02T00:55:21.875Z,1022.49
2016-05-02T00:55:31.875Z,1022.44
2016-05-02T00:55:41.875Z,1022.46
2016-05-02T00:55:51.703Z,1022.45
2016-05-02T00:56:01.844Z,1022.49
2016-05-02T00:56:11.828Z,1022.48
2016-05-02T00:56:21.831Z,1022.47
2016-05-02T00:56:31.831Z,1022.47
2016-05-02T00:56:41.831Z,1022.43
2016-05-02T00:56:51.847Z,1022.45
2016-05-02T00:57:01.831Z,1022.47
2016-05-02T00:57:11.816Z,1022.46
2016-05-02T00:57:21.818Z,1022.44
2016-05-02T00:57:31.646Z,1022.47
2016-05-02T00:57:41.646Z,1022.45
2016-05-02T00:57:51.786Z,1022.45
2016-05-02T00:58:01.630Z,1022.47
2016-05-02T00:58:11.786Z,1022.48
2016-05-02T00:58:21.789Z,1022.45
2016-05-02T00:58:31.774Z,1022.48
2016-05-02T00:58:41.602Z,1022.48
2016-05-02T00:58:51.602Z,1022.47
2016-05-02T00:59:01.602Z,1022.5
2016-05-02T00:59:11.774Z,1022.43
2016-05-02T00:59:21.746Z,1022.49
2016-05-02T00:59:31.589Z,1022.45
2016-05-02T00:59:41.746Z,1022.5
2016-05-02T00:59:51.730Z,1022.46
2016-05-02T01:00:01.714Z,1022.49
2016-05-02T01:00:11.730Z,1022.48
2016-05-02T01:00:21.716Z,1022.49
2016-05-02T01:00:31.716Z,1022.48
2016-05-02T01:00:41.716Z,1022.51
2016-05-02T01:00:51.716Z,1022.46
2016-05-02T01:01:01.701Z,1022.51
2016-05-02T01:01:11.810Z,1022.52
2016-05-02T01:01:21.532Z,1022.51
2016-05-02T01:01:31.672Z,1022.5
2016-05-02T01:01:41.672Z,1022.49
2016-05-02T01:01:51.672Z,1022.5
2016-05-02T01:02:01.657Z,1022.51
2016-05-02T01:02:11.672Z,1022.51
2016-05-02T01:02:21.669Z,1022.48
2016-05-02T01:02:31.653Z,1022.51
2016-05-02T01:02:41.653Z,1022.49
2016-05-02T01:02:51.638Z,1022.5
2016-05-02T01:03:01.481Z,1022.51
2016-05-02T01:03:11.481Z,1022.52
2016-05-02T01:03:21.669Z,1022.52
2016-05-02T01:03:31.669Z,1022.55
2016-05-02T01:03:41.669Z,1022.54
2016-05-02T01:03:51.653Z,1022.48
2016-05-02T01:04:01.669Z,1022.51
2016-05-02T01:04:11.653Z,1022.56
2016-05-02T01:04:21.700Z,1022.5
2016-05-02T01:04:31.685Z,1022.52
2016-05-02T01:04:41.528Z,1022.52
2016-05-02T01:04:51.528Z,1022.47
2016-05-02T01:05:01.669Z,1022.52
2016-05-02T01:05:11.513Z,1022.5
2016-05-02T01:05:21.700Z,1022.5
2016-05-02T01:05:31.716Z,1022.53
2016-05-02T01:05:41.560Z,1022.51
2016-05-02T01:05:51.685Z,1022.57
2016-05-02T01:06:01.700Z,1022.5
2016-05-02T01:06:11.763Z,1022.5
2016-05-02T01:06:22.293Z,1022.51
2016-05-02T01:06:32.325Z,1022.52
2016-05-02T01:06:41.715Z,1022.48
2016-05-02T01:06:51.731Z,1022.54
2016-05-02T01:07:01.700Z,1022.51
2016-05-02T01:07:11.715Z,1022.48
2016-05-02T01:07:21.569Z,1022.53
2016-05-02T01:07:31.709Z,1022.5
2016-05-02T01:07:41.709Z,1022.48
2016-05-02T01:07:51.709Z,1022.52
2016-05-02T01:08:01.553Z,1022.53
2016-05-02T01:08:11.694Z,1022.52
2016-05-02T01:08:21.713Z,1022.48
2016-05-02T01:08:31.556Z,1022.48
2016-05-02T01:08:41.541Z,1022.53
2016-05-02T01:08:51.681Z,1022.48
2016-05-02T01:09:01.681Z,1022.47
2016-05-02T01:09:11.681Z,1022.51
2016-05-02T01:09:21.544Z,1022.5
2016-05-02T01:09:31.685Z,1022.51
2016-05-02T01:09:41.700Z,1022.47
2016-05-02T01:09:51.685Z,1022.47
2016-05-02T01:10:01.669Z,1022.51
2016-05-02T01:10:11.669Z,1022.53
2016-05-02T01:10:21.688Z,1022.53
2016-05-02T01:10:31.532Z,1022.53
2016-05-02T01:10:41.673Z,1022.51
2016-05-02T01:10:51.657Z,1022.48
2016-05-02T01:11:01.641Z,1022.5
2016-05-02T01:11:11.657Z,1022.49
2016-05-02T01:11:21.520Z,1022.48
2016-05-02T01:11:31.379Z,1022.52
2016-05-02T01:11:41.645Z,1022.49
2016-05-02T01:11:51.645Z,1022.44
2016-05-02T01:12:01.645Z,1022.49
2016-05-02T01:12:11.629Z,1022.48
2016-05-02T01:12:21.646Z,1022.48
2016-05-02T01:12:31.490Z,1022.49
2016-05-02T01:12:41.490Z,1022.46
2016-05-02T01:12:51.646Z,1022.48
2016-05-02T01:13:01.630Z,1022.51
2016-05-02T01:13:11.615Z,1022.47
2016-05-02T01:13:21.623Z,1022.52
2016-05-02T01:13:31.607Z,1022.48
2016-05-02T01:13:41.451Z,1022.49
2016-05-02T01:13:51.607Z,1022.5
2016-05-02T01:14:01.607Z,1022.45
2016-05-02T01:14:11.607Z,1022.48
2016-05-02T01:14:21.435Z,1022.49
2016-05-02T01:14:31.600Z,1022.47
2016-05-02T01:14:41.584Z,1022.47
2016-05-02T01:14:51.428Z,1022.44
2016-05-02T01:15:01.256Z,1022.44
2016-05-02T01:15:11.568Z,1022.46
2016-05-02T01:15:21.568Z,1022.43
2016-05-02T01:15:31.421Z,1022.42
2016-05-02T01:15:41.562Z,1022.44
2016-05-02T01:15:51.577Z,1022.47
2016-05-02T01:16:01.562Z,1022.43
2016-05-02T01:16:11.546Z,1022.41
2016-05-02T01:16:21.546Z,1022.44
2016-05-02T01:16:31.539Z,1022.47
2016-05-02T01:16:41.399Z,1022.44
2016-05-02T01:16:51.524Z,1022.43
2016-05-02T01:17:01.539Z,1022.44
2016-05-02T01:17:11.524Z,1022.44
2016-05-02T01:17:21.524Z,1022.43
2016-05-02T01:17:31.531Z,1022.46
2016-05-02T01:17:41.359Z,1022.48
2016-05-02T01:17:51.500Z,1022.47
2016-05-02T01:18:01.500Z,1022.45
2016-05-02T01:18:11.484Z,1022.42
2016-05-02T01:18:21.500Z,1022.43
2016-05-02T01:18:31.489Z,1022.44
2016-05-02T01:18:41.489Z,1022.46
2016-05-02T01:18:51.489Z,1022.43
2016-05-02T01:19:01.473Z,1022.4
2016-05-02T01:19:11.161Z,1022.43
2016-05-02T01:19:21.458Z,1022.4
2016-05-02T01:19:31.446Z,1022.45
2016-05-02T01:19:41.462Z,1022.43
2016-05-02T01:19:51.462Z,1022.43
2016-05-02T01:20:01.290Z,1022.43
2016-05-02T01:20:11.430Z,1022.44
2016-05-02T01:20:21.430Z,1022.42
2016-05-02T01:20:31.435Z,1022.45
2016-05-02T01:20:41.420Z,1022.42
2016-05-02T01:20:51.279Z,1022.4
2016-05-02T01:21:01.264Z,1022.45
2016-05-02T01:21:11.435Z,1022.41
2016-05-02T01:21:21.654Z,1022.4
2016-05-02T01:21:31.174Z,1022.39
2016-05-02T01:21:41.502Z,1022.42
2016-05-02T01:21:51.393Z,1022.41
2016-05-02T01:22:01.377Z,1022.4
2016-05-02T01:22:11.393Z,1022.4
2016-05-02T01:22:21.377Z,1022.43
2016-05-02T01:22:31.382Z,1022.4
2016-05-02T01:22:41.366Z,1022.38
2016-05-02T01:22:51.351Z,1022.38
2016-05-02T01:23:01.366Z,1022.39
2016-05-02T01:23:11.351Z,1022.44
2016-05-02T01:23:21.351Z,1022.4
2016-05-02T01:23:31.182Z,1022.4
2016-05-02T01:23:41.322Z,1022.38
2016-05-02T01:23:51.338Z,1022.4
2016-05-02T01:24:01.322Z,1022.39
2016-05-02T01:24:11.338Z,1022.45
2016-05-02T01:24:21.322Z,1022.4
2016-05-02T01:24:31.170Z,1022.4
2016-05-02T01:24:41.311Z,1022.41
2016-05-02T01:24:51.280Z,1022.36
2016-05-02T01:25:01.139Z,1022.41
2016-05-02T01:25:11.139Z,1022.4
2016-05-02T01:25:21.280Z,1022.4
2016-05-02T01:25:31.284Z,1022.42
2016-05-02T01:25:41.284Z,1022.4
2016-05-02T01:25:51.268Z,1022.4
2016-05-02T01:26:01.268Z,1022.37
2016-05-02T01:26:11.096Z,1022.4
2016-05-02T01:26:21.252Z,1022.42
2016-05-02T01:26:31.239Z,1022.43
2016-05-02T01:26:41.254Z,1022.39
2016-05-02T01:26:51.239Z,1022.37
2016-05-02T01:27:01.239Z,1022.37
2016-05-02T01:27:11.223Z,1022.39
2016-05-02T01:27:21.223Z,1022.36
2016-05-02T01:27:31.227Z,1022.39
2016-05-02T01:27:41.211Z,1022.35
2016-05-02T01:27:51.055Z,1022.38
2016-05-02T01:28:01.211Z,1022.41
2016-05-02T01:28:11.196Z,1022.38
2016-05-02T01:28:21.196Z,1022.42
2016-05-02T01:28:31.199Z,1022.43
2016-05-02T01:28:41.183Z,1022.4
2016-05-02T01:28:51.027Z,1022.4
2016-05-02T01:29:01.168Z,1022.39
2016-05-02T01:29:11.168Z,1022.41
2016-05-02T01:29:21.183Z,1022.43
2016-05-02T01:29:31.155Z,1022.39
2016-05-02T01:29:41.155Z,1022.42
2016-05-02T01:29:51.155Z,1022.42
2016-05-02T01:30:01.139Z,1022.37
2016-05-02T01:30:11.155Z,1022.4
2016-05-02T01:30:20.967Z,1022.36
2016-05-02T01:30:31.127Z,1022.43
2016-05-02T01:30:41.127Z,1022.4
2016-05-02T01:30:51.127Z,1022.36
2016-05-02T01:31:00.970Z,1022.37
2016-05-02T01:31:11.111Z,1022.41
2016-05-02T01:31:21.111Z,1022.38
2016-05-02T01:31:31.084Z,1022.36
2016-05-02T01:31:41.084Z,1022.43
2016-05-02T01:31:51.084Z,1022.42
2016-05-02T01:32:01.084Z,1022.39
2016-05-02T01:32:11.084Z,1022.35
2016-05-02T01:32:21.068Z,1022.39
2016-05-02T01:32:31.258Z,1022.44
2016-05-02T01:32:40.914Z,1022.41
2016-05-02T01:32:51.055Z,1022.43
2016-05-02T01:33:01.055Z,1022.36
2016-05-02T01:33:11.039Z,1022.39
2016-05-02T01:33:21.039Z,1022.41
2016-05-02T01:33:31.042Z,1022.37
2016-05-02T01:33:40.886Z,1022.38
2016-05-02T01:33:51.026Z,1022.38
2016-05-02T01:34:01.026Z,1022.39
2016-05-02T01:34:11.011Z,1022.41
2016-05-02T01:34:21.011Z,1022.38
2016-05-02T01:34:31.014Z,1022.37
2016-05-02T01:34:40.998Z,1022.37
2016-05-02T01:34:50.998Z,1022.38
2016-05-02T01:35:00.998Z,1022.37
2016-05-02T01:35:11.014Z,1022.42
2016-05-02T01:35:20.982Z,1022.37
2016-05-02T01:35:30.984Z,1022.36
2016-05-02T01:35:40.969Z,1022.4
2016-05-02T01:35:51.469Z,1022.36
2016-05-02T01:36:00.844Z,1022.38
2016-05-02T01:36:10.984Z,1022.36
2016-05-02T01:36:21.203Z,1022.37
2016-05-02T01:36:31.628Z,1022.36
2016-05-02T01:36:40.941Z,1022.38
2016-05-02T01:36:50.941Z,1022.43
2016-05-02T01:37:00.769Z,1022.39
2016-05-02T01:37:10.925Z,1022.34
2016-05-02T01:37:20.769Z,1022.36
2016-05-02T01:37:30.772Z,1022.33
2016-05-02T01:37:40.912Z,1022.35
2016-05-02T01:37:50.897Z,1022.34
2016-05-02T01:38:00.897Z,1022.37
2016-05-02T01:38:10.897Z,1022.37
2016-05-02T01:38:20.881Z,1022.35
2016-05-02T01:38:30.884Z,1022.35
2016-05-02T01:38:40.884Z,1022.33
2016-05-02T01:38:50.868Z,1022.35
2016-05-02T01:39:00.868Z,1022.34
2016-05-02T01:39:10.868Z,1022.31
2016-05-02T01:39:20.712Z,1022.31
2016-05-02T01:39:30.855Z,1022.31
2016-05-02T01:39:40.855Z,1022.31
2016-05-02T01:39:50.839Z,1022.33
2016-05-02T01:40:00.683Z,1022.31
2016-05-02T01:40:10.839Z,1022.32
2016-05-02T01:40:20.824Z,1022.28
2016-05-02T01:40:30.811Z,1022.29
2016-05-02T01:40:40.827Z,1022.3
2016-05-02T01:40:50.655Z,1022.32
2016-05-02T01:41:00.795Z,1022.31
2016-05-02T01:41:10.795Z,1022.31
2016-05-02T01:41:20.795Z,1022.29
2016-05-02T01:41:30.797Z,1022.28
2016-05-02T01:41:40.782Z,1022.27
2016-05-02T01:41:50.782Z,1022.31
2016-05-02T01:42:00.782Z,1022.29
2016-05-02T01:42:10.750Z,1022.31
2016-05-02T01:42:20.766Z,1022.26
2016-05-02T01:42:30.753Z,1022.29
2016-05-02T01:42:40.753Z,1022.29
2016-05-02T01:42:50.753Z,1022.28
2016-05-02T01:43:00.597Z,1022.32
2016-05-02T01:43:10.738Z,1022.3
2016-05-02T01:43:20.722Z,1022.27
2016-05-02T01:43:30.725Z,1022.28
2016-05-02T01:43:40.710Z,1022.28
2016-05-02T01:43:50.710Z,1022.28
2016-05-02T01:44:00.725Z,1022.3
2016-05-02T01:44:10.725Z,1022.27
2016-05-02T01:44:20.694Z,1022.24
2016-05-02T01:44:30.556Z,1022.25
2016-05-02T01:44:40.681Z,1022.22
2016-05-02T01:44:50.541Z,1022.27
2016-05-02T01:45:00.681Z,1022.26
2016-05-02T01:45:10.697Z,1022.23
2016-05-02T01:45:20.666Z,1022.27
2016-05-02T01:45:30.652Z,1022.25
2016-05-02T01:45:40.652Z,1022.23
2016-05-02T01:45:50.652Z,1022.22
2016-05-02T01:46:00.652Z,1022.27
2016-05-02T01:46:10.652Z,1022.24
2016-05-02T01:46:20.636Z,1022.22
2016-05-02T01:46:30.483Z,1022.25
2016-05-02T01:46:40.624Z,1022.22
2016-05-02T01:46:50.624Z,1022.23
2016-05-02T01:47:00.624Z,1022.26
2016-05-02T01:47:10.608Z,1022.2
2016-05-02T01:47:20.608Z,1022.17
2016-05-02T01:47:30.455Z,1022.22
2016-05-02T01:47:40.439Z,1022.21
2016-05-02T01:47:50.596Z,1022.2
2016-05-02T01:48:00.580Z,1022.19
2016-05-02T01:48:10.580Z,1022.2
2016-05-02T01:48:20.424Z,1022.21
2016-05-02T01:48:30.582Z,1022.22
2016-05-02T01:48:40.566Z,1022.22
2016-05-02T01:48:50.566Z,1022.2
2016-05-02T01:49:00.551Z,1022.16
2016-05-02T01:49:10.535Z,1022.19
2016-05-02T01:49:20.535Z,1022.16
2016-05-02T01:49:30.397Z,1022.19
2016-05-02T01:49:40.522Z,1022.22
2016-05-02T01:49:50.538Z,1022.19
2016-05-02T01:50:00.522Z,1022.24
2016-05-02T01:50:10.507Z,1022.2
2016-05-02T01:50:20.507Z,1022.16
2016-05-02T01:50:30.510Z,1022.23
2016-05-02T01:50:40.494Z,1022.23
2016-05-02T01:50:50.197Z,1022.21
2016-05-02T01:51:00.338Z,1022.19
2016-05-02T01:51:10.525Z,1022.18
2016-05-02T01:51:20.479Z,1022.22
2016-05-02T01:51:30.325Z,1022.21
2016-05-02T01:51:40.482Z,1022.19
2016-05-02T01:51:50.482Z,1022.21
2016-05-02T01:52:00.466Z,1022.19
2016-05-02T01:52:10.450Z,1022.14
2016-05-02T01:52:20.435Z,1022.16
2016-05-02T01:52:30.437Z,1022.21
2016-05-02T01:52:40.452Z,1022.19
2016-05-02T01:52:50.468Z,1022.15
2016-05-02T01:53:00.452Z,1022.15
2016-05-02T01:53:10.421Z,1022.17
2016-05-02T01:53:20.437Z,1022.13
2016-05-02T01:53:30.408Z,1022.16
2016-05-02T01:53:40.268Z,1022.19
2016-05-02T01:53:50.393Z,1022.23
2016-05-02T01:54:00.408Z,1022.2
2016-05-02T01:54:10.408Z,1022.18
2016-05-02T01:54:20.393Z,1022.19
2016-05-02T01:54:30.395Z,1022.18
2016-05-02T01:54:40.379Z,1022.19
2016-05-02T01:54:50.395Z,1022.19
2016-05-02T01:55:00.207Z,1022.18
2016-05-02T01:55:10.207Z,1022.19
2016-05-02T01:55:20.364Z,1022.19
2016-05-02T01:55:30.195Z,1022.19
2016-05-02T01:55:40.335Z,1022.2
2016-05-02T01:55:50.351Z,1022.16
2016-05-02T01:56:00.335Z,1022.17
2016-05-02T01:56:10.195Z,1022.2
2016-05-02T01:56:20.320Z,1022.16
2016-05-02T01:56:30.307Z,1022.19
2016-05-02T01:56:40.323Z,1022.18
2016-05-02T01:56:50.307Z,1022.17
2016-05-02T01:57:00.151Z,1022.17
2016-05-02T01:57:10.307Z,1022.19
2016-05-02T01:57:20.291Z,1022.18
2016-05-02T01:57:30.294Z,1022.16
2016-05-02T01:57:40.294Z,1022.18
2016-05-02T01:57:50.279Z,1022.11
2016-05-02T01:58:00.123Z,1022.14
2016-05-02T01:58:10.263Z,1022.09
2016-05-02T01:58:20.263Z,1022.16
2016-05-02T01:58:30.265Z,1022.18
2016-05-02T01:58:40.250Z,1022.18
2016-05-02T01:58:50.250Z,1022.16
2016-05-02T01:59:00.250Z,1022.18
2016-05-02T01:59:10.234Z,1022.13
2016-05-02T01:59:20.218Z,1022.13
2016-05-02T01:59:30.096Z,1022.11
2016-05-02T01:59:40.221Z,1022.1
2016-05-02T01:59:50.221Z,1022.11
2016-05-02T02:00:00.206Z,1022.09
2016-05-02T02:00:10.049Z,1022.13
2016-05-02T02:00:20.206Z,1022.09
2016-05-02T02:00:30.193Z,1022.06
2016-05-02T02:00:40.037Z,1022.15
2016-05-02T02:00:50.193Z,1022.12
2016-05-02T02:01:00.193Z,1022.09
2016-05-02T02:01:10.177Z,1022.11
2016-05-02T02:01:20.021Z,1022.1